createdAt,value
2018-12-23T00:00:29.293Z,28.60
2018-12-23T00:02:58.821Z,23.83
2018-12-23T00:05:27.921Z,13.23
2018-12-23T00:07:56.919Z,18.00
2018-12-23T00:10:26.081Z,25.03
2018-12-23T00:12:55.019Z,9.13
2018-12-23T00:15:24.093Z,9.90
2018-12-23T00:17:53.117Z,14.80
2018-12-23T00:20:22.189Z,13.23
2018-12-23T00:22:51.177Z,19.20
2018-12-23T00:25:20.272Z,9.20
2018-12-23T00:27:49.256Z,24.23
2018-12-23T00:30:18.283Z,15.33
2018-12-23T00:32:47.236Z,15.90
2018-12-23T00:35:20.211Z,10.70
2018-12-23T00:37:48.201Z,11.03
2018-12-23T00:40:17.223Z,20.70
2018-12-23T00:42:46.117Z,13.20
2018-12-23T00:45:15.161Z,15.97
2018-12-23T00:47:44.183Z,27.37
2018-12-23T00:50:13.188Z,15.20
2018-12-23T00:52:42.261Z,24.53
2018-12-23T00:55:11.374Z,23.90
2018-12-23T00:57:40.425Z,21.83
2018-12-23T01:00:11.901Z,31.97
2018-12-23T01:02:41.220Z,20.70
2018-12-23T01:05:10.499Z,37.77
2018-12-23T01:07:40.499Z,25.17
2018-12-23T01:10:09.718Z,26.37
2018-12-23T01:12:38.848Z,20.27
2018-12-23T01:15:08.086Z,16.67
2018-12-23T01:17:37.081Z,19.03
2018-12-23T01:20:07.329Z,23.37
2018-12-23T01:22:36.519Z,23.67
2018-12-23T01:25:06.889Z,27.37
2018-12-23T01:27:35.981Z,17.93
2018-12-23T01:30:05.804Z,12.40
2018-12-23T01:32:35.271Z,41.03
2018-12-23T01:35:04.686Z,29.63
2018-12-23T01:37:33.851Z,16.50
2018-12-23T01:40:05.180Z,20.53
2018-12-23T01:42:34.486Z,22.20
2018-12-23T01:45:04.013Z,27.03
2018-12-23T01:47:33.256Z,22.77
2018-12-23T01:50:02.641Z,9.80
2018-12-23T01:52:31.751Z,18.17
2018-12-23T01:55:00.879Z,34.23
2018-12-23T01:57:30.764Z,27.27
2018-12-23T02:00:00.060Z,21.80
2018-12-23T02:02:29.197Z,18.67
2018-12-23T02:04:58.197Z,19.53
2018-12-23T02:07:27.195Z,14.10
2018-12-23T02:09:56.373Z,7.53
2018-12-23T02:12:25.477Z,13.20
2018-12-23T02:14:54.638Z,7.07
2018-12-23T02:17:23.666Z,17.33
2018-12-23T02:19:52.753Z,11.33
2018-12-23T02:22:21.979Z,15.20
2018-12-23T02:24:50.997Z,18.37
2018-12-23T02:27:19.989Z,17.60
2018-12-23T02:29:49.097Z,25.20
2018-12-23T02:32:18.189Z,15.53
2018-12-23T02:34:47.313Z,14.23
2018-12-23T02:37:16.465Z,7.03
2018-12-23T02:39:45.507Z,15.57
2018-12-23T02:42:14.553Z,9.43
2018-12-23T02:44:43.582Z,12.47
2018-12-23T02:47:12.960Z,29.10
2018-12-23T02:49:42.070Z,28.03
2018-12-23T02:52:11.173Z,34.03
2018-12-23T02:54:40.174Z,12.00
2018-12-23T02:57:09.150Z,20.70
2018-12-23T02:59:38.172Z,47.57
2018-12-23T03:02:07.212Z,13.43
2018-12-23T03:04:36.192Z,36.90
2018-12-23T03:07:05.311Z,20.10
2018-12-23T03:09:34.609Z,28.40
2018-12-23T03:12:03.637Z,34.63
2018-12-23T03:14:32.712Z,62.87
2018-12-23T03:17:01.773Z,14.53
2018-12-23T03:19:30.890Z,17.87
2018-12-23T03:21:59.898Z,28.60
2018-12-23T03:24:28.889Z,21.57
2018-12-23T03:26:57.969Z,19.40
2018-12-23T03:29:27.055Z,20.20
2018-12-23T03:31:55.970Z,43.60
2018-12-23T03:34:25.359Z,32.63
2018-12-23T03:36:54.897Z,22.53
2018-12-23T03:39:23.916Z,21.50
2018-12-23T03:41:53.069Z,29.43
2018-12-23T03:44:22.175Z,29.07
2018-12-23T03:46:51.201Z,24.63
2018-12-23T03:49:20.222Z,11.57
2018-12-23T03:51:49.298Z,22.83
2018-12-23T03:54:18.721Z,22.83
2018-12-23T03:56:47.865Z,26.47
2018-12-23T03:59:16.902Z,46.07
2018-12-23T04:01:46.013Z,53.47
2018-12-23T04:04:14.977Z,42.80
2018-12-23T04:06:44.019Z,53.70
2018-12-23T04:09:13.137Z,20.77
2018-12-23T04:11:42.157Z,36.00
2018-12-23T04:14:11.281Z,31.83
2018-12-23T04:16:40.278Z,48.07
2018-12-23T04:19:09.395Z,39.63
2018-12-23T04:21:38.554Z,33.87
2018-12-23T04:24:07.685Z,101.20
2018-12-23T04:26:36.795Z,48.30
2018-12-23T04:29:05.894Z,43.67
2018-12-23T04:31:34.995Z,43.63
2018-12-23T04:34:04.053Z,48.40
2018-12-23T04:36:34.198Z,52.33
2018-12-23T04:39:03.679Z,33.90
2018-12-23T04:41:32.705Z,124.50
2018-12-23T04:44:01.735Z,61.27
2018-12-23T04:46:30.903Z,52.90
2018-12-23T04:48:59.997Z,59.00
2018-12-23T04:51:28.894Z,88.87
2018-12-23T04:53:57.920Z,68.13
2018-12-23T04:56:26.898Z,51.73
2018-12-23T04:58:55.836Z,61.10
2018-12-23T05:01:24.797Z,63.60
2018-12-23T05:03:53.823Z,49.87
2018-12-23T05:06:23.834Z,36.23
2018-12-23T05:08:52.934Z,59.23
2018-12-23T05:11:22.075Z,59.50
2018-12-23T05:13:51.029Z,52.10
2018-12-23T05:16:20.054Z,58.03
2018-12-23T05:18:49.406Z,61.77
2018-12-23T05:21:18.365Z,62.17
2018-12-23T05:23:47.331Z,54.70
2018-12-23T05:26:16.261Z,57.97
2018-12-23T05:28:45.336Z,61.57
2018-12-23T05:31:14.264Z,64.00
2018-12-23T05:33:43.472Z,53.50
2018-12-23T05:36:12.509Z,68.93
2018-12-23T05:38:41.416Z,84.87
2018-12-23T05:41:11.116Z,68.17
2018-12-23T05:43:40.148Z,51.50
2018-12-23T05:46:10.222Z,57.33
2018-12-23T05:48:39.297Z,62.93
2018-12-23T05:51:08.290Z,52.33
2018-12-23T05:53:37.390Z,74.10
2018-12-23T05:56:06.470Z,50.27
2018-12-23T05:58:35.500Z,66.30
2018-12-23T06:01:04.450Z,96.70
2018-12-23T06:03:33.343Z,77.10
2018-12-23T06:06:02.493Z,77.03
2018-12-23T06:08:31.375Z,64.27
2018-12-23T06:11:00.443Z,44.93
2018-12-23T06:13:29.553Z,62.33
2018-12-23T06:15:58.693Z,63.30
2018-12-23T06:18:27.733Z,71.37
2018-12-23T06:20:56.852Z,80.47
2018-12-23T06:23:25.965Z,63.63
2018-12-23T06:25:55.045Z,70.87
2018-12-23T06:28:23.938Z,76.33
2018-12-23T06:30:53.037Z,70.57
2018-12-23T06:33:21.977Z,68.27
2018-12-23T06:35:51.050Z,76.13
2018-12-23T06:38:19.895Z,59.13
2018-12-23T06:40:48.906Z,75.97
2018-12-23T06:43:17.832Z,74.87
2018-12-23T06:45:46.840Z,60.87
2018-12-23T06:48:17.230Z,72.23
2018-12-23T06:50:46.337Z,78.87
2018-12-23T06:53:15.337Z,71.57
2018-12-23T06:55:44.398Z,80.60
2018-12-23T06:58:13.374Z,77.63
2018-12-23T07:00:44.978Z,58.87
2018-12-23T07:03:14.098Z,66.73
2018-12-23T07:05:43.165Z,73.97
2018-12-23T07:08:12.253Z,76.77
2018-12-23T07:10:41.771Z,102.17
2018-12-23T07:13:10.855Z,80.47
2018-12-23T07:15:40.212Z,61.40
2018-12-23T07:18:09.321Z,82.40
2018-12-23T07:20:38.930Z,72.87
2018-12-23T07:23:07.922Z,56.37
2018-12-23T07:25:36.981Z,52.07
2018-12-23T07:28:06.086Z,94.40
2018-12-23T07:30:35.090Z,69.60
2018-12-23T07:33:04.445Z,55.30
2018-12-23T07:35:33.575Z,79.20
2018-12-23T07:38:02.581Z,73.27
2018-12-23T07:40:31.597Z,57.80
2018-12-23T07:43:00.759Z,53.50
2018-12-23T07:45:29.726Z,48.30
2018-12-23T07:47:58.773Z,46.53
2018-12-23T07:50:27.866Z,56.50
2018-12-23T07:52:56.998Z,94.83
2018-12-23T07:55:26.001Z,50.47
2018-12-23T07:57:54.965Z,60.63
2018-12-23T08:00:24.061Z,76.23
2018-12-23T08:02:53.198Z,45.40
2018-12-23T08:05:22.160Z,53.57
2018-12-23T08:07:51.297Z,75.13
2018-12-23T08:10:20.265Z,62.70
2018-12-23T08:12:49.397Z,59.60
2018-12-23T08:15:18.521Z,52.67
2018-12-23T08:17:47.597Z,49.97
2018-12-23T08:20:16.643Z,37.93
2018-12-23T08:22:45.801Z,57.73
2018-12-23T08:25:14.889Z,64.23
2018-12-23T08:27:43.873Z,64.93
2018-12-23T08:30:12.913Z,51.23
2018-12-23T08:32:42.063Z,56.57
2018-12-23T08:35:11.149Z,92.73
2018-12-23T08:37:44.621Z,75.47
2018-12-23T08:40:11.325Z,63.03
2018-12-23T08:42:40.373Z,62.90
2018-12-23T08:45:09.477Z,64.60
2018-12-23T08:47:38.479Z,79.40
2018-12-23T08:50:08.114Z,62.80
2018-12-23T08:52:37.251Z,59.77
2018-12-23T08:55:06.333Z,66.53
2018-12-23T08:57:35.488Z,61.43
2018-12-23T09:00:04.792Z,58.83
2018-12-23T09:02:33.813Z,81.50
2018-12-23T09:05:02.869Z,60.00
2018-12-23T09:07:31.952Z,71.47
2018-12-23T09:10:01.048Z,58.33
2018-12-23T09:12:30.096Z,74.63
2018-12-23T09:14:59.164Z,66.33
2018-12-23T09:17:28.262Z,52.70
2018-12-23T09:19:57.386Z,78.13
2018-12-23T09:22:26.399Z,58.00
2018-12-23T09:24:55.896Z,89.37
2018-12-23T09:27:24.898Z,54.40
2018-12-23T09:29:54.062Z,89.33
2018-12-23T09:32:23.185Z,59.70
2018-12-23T09:34:52.157Z,62.87
2018-12-23T09:37:21.225Z,66.17
2018-12-23T09:39:50.309Z,64.43
2018-12-23T09:42:19.365Z,62.07
2018-12-23T09:44:48.450Z,65.70
2018-12-23T09:47:17.445Z,73.97
2018-12-23T09:49:46.421Z,58.23
2018-12-23T09:52:15.469Z,48.10
2018-12-23T09:54:44.466Z,69.70
2018-12-23T09:57:13.573Z,59.93
2018-12-23T09:59:42.565Z,104.30
2018-12-23T10:02:11.670Z,51.07
2018-12-23T10:04:40.627Z,47.13
2018-12-23T10:07:13.337Z,55.27
2018-12-23T10:09:42.360Z,38.73
2018-12-23T10:12:11.405Z,42.70
2018-12-23T10:14:40.525Z,74.77
2018-12-23T10:17:10.300Z,41.10
2018-12-23T10:19:39.258Z,42.97
2018-12-23T10:22:08.455Z,66.63
2018-12-23T10:24:37.477Z,79.47
2018-12-23T10:27:06.581Z,47.20
2018-12-23T10:29:35.814Z,47.20
2018-12-23T10:32:04.772Z,40.70
2018-12-23T10:34:33.869Z,44.03
2018-12-23T10:37:03.088Z,53.20
2018-12-23T10:39:32.255Z,78.07
2018-12-23T10:42:01.381Z,42.30
2018-12-23T10:44:30.417Z,43.20
2018-12-23T10:46:59.661Z,40.67
2018-12-23T10:49:28.772Z,57.50
2018-12-23T10:51:57.758Z,72.33
2018-12-23T10:54:26.878Z,52.33
2018-12-23T10:56:55.854Z,46.67
2018-12-23T10:59:24.998Z,42.73
2018-12-23T11:01:54.048Z,45.47
2018-12-23T11:04:23.193Z,51.57
2018-12-23T11:06:52.365Z,62.60
2018-12-23T11:09:21.376Z,74.87
2018-12-23T11:11:50.301Z,32.67
2018-12-23T11:14:19.514Z,56.30
2018-12-23T11:16:48.546Z,55.53
2018-12-23T11:19:17.618Z,47.93
2018-12-23T11:21:46.652Z,60.37
2018-12-23T11:24:15.606Z,64.20
2018-12-23T11:26:44.781Z,40.77
2018-12-23T11:29:15.793Z,48.80
2018-12-23T11:31:44.916Z,41.63
2018-12-23T11:34:13.923Z,52.43
2018-12-23T11:36:42.959Z,61.30
2018-12-23T11:39:12.057Z,60.13
2018-12-23T11:41:41.213Z,62.70
2018-12-23T11:44:10.289Z,53.30
2018-12-23T11:46:39.381Z,63.40
2018-12-23T11:49:08.705Z,58.87
2018-12-23T11:51:37.817Z,48.77
2018-12-23T11:54:06.949Z,65.70
2018-12-23T11:56:36.133Z,51.93
2018-12-23T11:59:05.147Z,46.60
2018-12-23T12:01:34.166Z,48.97
2018-12-23T12:04:03.130Z,54.17
2018-12-23T12:06:32.249Z,56.73
2018-12-23T12:09:06.923Z,36.00
2018-12-23T12:11:32.585Z,65.47
2018-12-23T12:14:01.606Z,47.87
2018-12-23T12:16:30.906Z,36.53
2018-12-23T12:18:59.982Z,43.90
2018-12-23T12:21:28.929Z,22.10
2018-12-23T12:23:57.890Z,50.50
2018-12-23T12:26:27.025Z,44.40
2018-12-23T12:28:56.142Z,26.87
2018-12-23T12:31:25.060Z,29.93
2018-12-23T12:33:54.117Z,36.17
2018-12-23T12:36:23.169Z,26.63
2018-12-23T12:38:52.533Z,25.23
2018-12-23T12:41:21.698Z,21.70
2018-12-23T12:43:50.864Z,22.00
2018-12-23T12:46:19.920Z,24.53
2018-12-23T12:48:48.961Z,26.27
2018-12-23T12:51:18.010Z,30.63
2018-12-23T12:53:47.129Z,24.30
2018-12-23T12:56:16.248Z,34.17
2018-12-23T12:58:45.369Z,37.60
2018-12-23T13:01:14.497Z,42.93
2018-12-23T13:03:43.745Z,30.30
2018-12-23T13:06:12.890Z,26.53
2018-12-23T13:08:41.961Z,28.73
2018-12-23T13:11:11.022Z,29.53
2018-12-23T13:13:40.020Z,33.47
2018-12-23T13:16:09.111Z,25.30
2018-12-23T13:18:38.136Z,51.67
2018-12-23T13:21:07.245Z,36.17
2018-12-23T13:23:36.364Z,38.03
2018-12-23T13:26:05.421Z,31.47
2018-12-23T13:28:34.745Z,45.00
2018-12-23T13:31:03.894Z,36.97
2018-12-23T13:33:33.218Z,41.23
2018-12-23T13:36:02.542Z,37.30
2018-12-23T13:38:31.843Z,36.10
2018-12-23T13:41:13.053Z,26.10
2018-12-23T13:43:56.389Z,36.10
2018-12-23T13:46:44.325Z,25.03
2018-12-23T13:49:43.069Z,29.53
2018-12-23T13:52:29.893Z,33.60
2018-12-23T13:55:47.055Z,31.60
2018-12-23T14:01:30.177Z,22.53
2018-12-23T14:04:15.001Z,22.17
2018-12-23T14:07:06.870Z,30.07
2018-12-23T14:09:54.868Z,28.87
2018-12-23T14:12:24.105Z,23.53
2018-12-23T14:14:53.306Z,31.37
2018-12-23T14:17:22.543Z,31.50
2018-12-23T14:19:51.850Z,20.30
2018-12-23T14:22:20.969Z,25.30
2018-12-23T14:24:50.154Z,20.93
2018-12-23T14:27:19.469Z,31.30
2018-12-23T14:29:48.443Z,32.23
2018-12-23T14:32:17.781Z,56.00
2018-12-23T14:34:46.972Z,27.07
2018-12-23T14:37:16.017Z,20.33
2018-12-23T14:40:45.369Z,22.63
2018-12-23T14:43:14.532Z,18.43
2018-12-23T14:45:44.021Z,12.20
2018-12-23T14:48:13.296Z,45.77
2018-12-23T14:50:42.318Z,20.10
2018-12-23T14:53:11.485Z,28.80
2018-12-23T14:55:40.645Z,14.13
2018-12-23T14:58:11.167Z,23.27
2018-12-23T15:00:40.489Z,10.93
2018-12-23T15:03:09.601Z,20.80
2018-12-23T15:05:38.702Z,13.10
2018-12-23T15:08:07.877Z,16.37
2018-12-23T15:10:36.893Z,22.73
2018-12-23T15:13:06.134Z,18.63
2018-12-23T15:15:35.313Z,19.00
2018-12-23T15:18:04.405Z,10.53
2018-12-23T15:20:33.589Z,12.77
2018-12-23T15:23:10.490Z,27.53
2018-12-23T15:25:34.006Z,18.60
2018-12-23T15:28:03.205Z,9.37
2018-12-23T15:30:32.525Z,8.33
2018-12-23T15:33:01.562Z,10.83
2018-12-23T15:35:30.698Z,10.40
2018-12-23T15:37:59.821Z,12.20
2018-12-23T15:40:28.917Z,15.00
2018-12-23T15:42:58.093Z,9.73
2018-12-23T15:45:27.253Z,8.20
2018-12-23T15:47:56.466Z,9.07
2018-12-23T15:50:25.601Z,9.47
2018-12-23T15:52:54.817Z,8.57
2018-12-23T15:55:23.985Z,8.30
2018-12-23T15:57:53.095Z,7.97
2018-12-23T16:00:22.333Z,9.80
2018-12-23T16:02:51.522Z,7.87
2018-12-23T16:05:21.093Z,8.00
2018-12-23T16:07:50.209Z,17.03
2018-12-23T16:10:19.549Z,9.93
2018-12-23T16:12:48.569Z,9.97
2018-12-23T16:15:17.894Z,16.50
2018-12-23T16:17:47.148Z,13.93
2018-12-23T16:20:17.320Z,17.10
2018-12-23T16:22:46.479Z,17.60
2018-12-23T16:25:15.761Z,10.07
2018-12-23T16:27:45.173Z,17.23
2018-12-23T16:30:14.575Z,32.27
2018-12-23T16:32:43.861Z,11.90
2018-12-23T16:35:13.233Z,11.83
2018-12-23T16:37:42.345Z,12.83
2018-12-23T16:40:14.018Z,15.43
2018-12-23T16:42:43.939Z,12.13
2018-12-23T16:45:13.213Z,9.50
2018-12-23T16:47:42.531Z,20.13
2018-12-23T16:50:11.773Z,13.10
2018-12-23T16:52:41.090Z,13.90
2018-12-23T16:55:10.425Z,18.77
2018-12-23T16:57:39.798Z,11.03
2018-12-23T17:00:12.002Z,12.13
2018-12-23T17:02:41.488Z,12.20
2018-12-23T17:05:10.769Z,11.43
2018-12-23T17:07:40.065Z,16.43
2018-12-23T17:10:10.009Z,12.77
2018-12-23T17:12:39.420Z,9.93
2018-12-23T17:15:09.393Z,11.97
2018-12-23T17:17:38.803Z,10.13
2018-12-23T17:20:11.022Z,9.47
2018-12-23T17:22:40.485Z,13.90
2018-12-23T17:25:10.861Z,18.63
2018-12-23T17:27:40.397Z,12.80
2018-12-23T17:30:10.477Z,13.20
2018-12-23T17:32:39.834Z,13.13
2018-12-23T17:35:09.277Z,9.37
2018-12-23T17:37:38.593Z,20.80
2018-12-23T17:40:16.273Z,18.03
2018-12-23T17:42:39.424Z,14.40
2018-12-23T17:45:08.953Z,13.47
2018-12-23T17:47:38.354Z,19.00
2018-12-23T17:50:08.729Z,11.63
2018-12-23T17:52:38.196Z,17.60
2018-12-23T17:55:07.762Z,32.10
2018-12-23T17:57:37.069Z,10.03
2018-12-23T18:00:06.823Z,27.23
2018-12-23T18:02:36.270Z,7.17
2018-12-23T18:05:06.220Z,11.37
2018-12-23T18:07:35.505Z,13.60
2018-12-23T18:10:05.126Z,9.67
2018-12-23T18:12:34.678Z,32.47
2018-12-23T18:15:04.237Z,12.97
2018-12-23T18:17:34.029Z,10.10
2018-12-23T18:20:03.353Z,13.27
2018-12-23T18:22:32.718Z,10.63
2018-12-23T18:25:02.336Z,10.17
2018-12-23T18:27:31.663Z,28.03
2018-12-23T18:30:00.971Z,18.00
2018-12-23T18:32:30.320Z,11.70
2018-12-23T18:34:59.721Z,16.50
2018-12-23T18:37:29.106Z,9.80
2018-12-23T18:39:58.802Z,15.07
2018-12-23T18:42:28.290Z,14.47
2018-12-23T18:44:57.742Z,9.20
2018-12-23T18:47:27.596Z,9.90
2018-12-23T18:49:57.195Z,14.77
2018-12-23T18:52:26.781Z,17.50
2018-12-23T18:54:56.231Z,15.17
2018-12-23T18:57:26.464Z,7.57
2018-12-23T18:59:55.893Z,24.67
2018-12-23T19:02:34.946Z,13.40
2018-12-23T19:05:04.322Z,13.50
2018-12-23T19:07:33.689Z,18.60
2018-12-23T19:10:20.125Z,17.67
2018-12-23T19:13:11.666Z,16.10
2018-12-23T19:15:56.790Z,20.57
2018-12-23T19:18:39.537Z,15.13
2018-12-23T19:21:36.117Z,11.33
2018-12-23T19:24:36.705Z,16.57
2018-12-23T19:27:15.769Z,19.43
2018-12-23T19:29:55.595Z,17.93
2018-12-23T19:33:13.715Z,16.17
2018-12-23T19:35:55.520Z,14.00
2018-12-23T19:39:09.520Z,17.50
2018-12-23T19:43:50.881Z,17.30
2018-12-23T19:46:32.509Z,21.83
2018-12-23T19:49:15.195Z,12.20
2018-12-23T19:52:01.185Z,12.77
2018-12-23T19:54:50.904Z,13.90
2018-12-23T19:57:34.531Z,10.30
2018-12-23T20:01:15.442Z,14.83
2018-12-23T20:04:08.300Z,14.63
2018-12-23T20:06:53.201Z,15.37
2018-12-23T20:09:50.241Z,13.37
2018-12-23T20:14:32.257Z,11.20
2018-12-23T20:17:13.610Z,11.20
2018-12-23T20:19:55.979Z,11.13
2018-12-23T20:24:39.138Z,11.77
2018-12-23T20:27:22.048Z,8.63
2018-12-23T20:30:02.086Z,19.80
2018-12-23T20:34:45.869Z,8.67
2018-12-23T20:37:35.482Z,13.33
2018-12-23T20:40:18.336Z,9.40
2018-12-23T20:43:05.014Z,11.70
2018-12-23T20:45:45.204Z,10.47
2018-12-23T20:48:26.753Z,17.70
2018-12-23T20:51:09.861Z,21.20
2018-12-23T20:53:58.874Z,20.03
2018-12-23T20:56:39.910Z,12.57
2018-12-23T20:59:20.494Z,18.80
2018-12-23T21:03:04.262Z,12.97
2018-12-23T21:07:48.074Z,15.73
2018-12-23T21:12:32.904Z,11.30
2018-12-23T21:15:14.793Z,20.73
2018-12-23T21:17:55.681Z,15.13
2018-12-23T21:21:05.569Z,14.83
2018-12-23T21:23:48.489Z,14.13
2018-12-23T21:26:37.373Z,12.23
2018-12-23T21:32:19.685Z,17.67
2018-12-23T21:36:20.581Z,11.80
2018-12-23T21:39:21.157Z,17.87
2018-12-23T21:46:05.016Z,22.50
2018-12-23T21:49:16.733Z,16.40
2018-12-23T21:54:11.649Z,29.40
2018-12-23T21:59:01.482Z,16.20
2018-12-23T22:01:41.698Z,10.07
2018-12-23T22:04:28.614Z,14.33
2018-12-23T22:09:13.648Z,14.33
2018-12-23T22:13:00.563Z,10.90
2018-12-23T22:15:29.697Z,17.23
2018-12-23T22:17:58.842Z,24.90
2018-12-23T22:20:28.071Z,9.33
2018-12-23T22:22:58.442Z,8.50
2018-12-23T22:25:27.765Z,20.37
2018-12-23T22:27:56.737Z,9.97
2018-12-23T22:30:25.823Z,10.00
2018-12-23T22:32:54.760Z,10.93
2018-12-23T22:35:23.905Z,10.17
2018-12-23T22:37:52.874Z,23.37
2018-12-23T22:40:21.964Z,25.17
2018-12-23T22:42:50.997Z,12.70
2018-12-23T22:45:20.052Z,8.03
2018-12-23T22:47:49.156Z,12.57
2018-12-23T22:50:18.140Z,9.43
2018-12-23T22:52:47.317Z,12.60
2018-12-23T22:55:16.350Z,9.03
2018-12-23T22:57:45.408Z,7.10
2018-12-23T23:00:17.537Z,8.33
2018-12-23T23:02:46.609Z,8.50
2018-12-23T23:05:15.955Z,8.87
2018-12-23T23:07:45.309Z,17.60
2018-12-23T23:10:14.481Z,10.33
2018-12-23T23:12:43.457Z,9.27
2018-12-23T23:15:12.573Z,22.03
2018-12-23T23:17:41.766Z,10.40
2018-12-23T23:20:10.860Z,11.57
2018-12-23T23:22:39.867Z,8.20
2018-12-23T23:25:08.917Z,10.80
2018-12-23T23:27:37.861Z,15.70
2018-12-23T23:30:07.169Z,24.17
2018-12-23T23:32:36.233Z,11.60
2018-12-23T23:35:05.502Z,13.73
2018-12-23T23:37:34.520Z,16.60
2018-12-23T23:40:03.624Z,9.53
2018-12-23T23:42:32.608Z,13.63
2018-12-23T23:45:01.806Z,17.63
2018-12-23T23:47:30.877Z,8.80
2018-12-23T23:49:59.904Z,6.73
2018-12-23T23:52:28.870Z,9.87
2018-12-23T23:54:57.989Z,9.50
2018-12-23T23:57:27.055Z,11.97
2018-12-23T23:59:56.118Z,25.90
